Last 24 Hour KALB Observations

Last 24 hours of surface weather observations from the Albany County Airport. Observations taken by the National Weather Service.


		
KALB 191251Z VRB03KT 10SM BKN040 OVC065 13/M03 A3033 RMK AO2 SLP271 VCSH SW
 T01331028=
KALB 191351Z 19010KT 9SM -RA SCT037 OVC060 13/00 A3032 RMK AO2 RAB17 SLP266
 P0000 T01280000=
KALB 191434Z 20010KT 2SM -RA BKN047 OVC065 09/06 A3032=
KALB 191434Z 20010KT 2SM -RA BKN047 OVC065 09/06 A3032 RMK AO2 SFC VIS 3 P0002
 T00940056=
KALB 191451Z 20006KT 3SM -RA SCT036 BKN045 OVC060 09/06 A3032 RMK AO2 SLP266
 P0007 60007 T00940061 55007=
KALB 191551Z 17007KT 4SM -RA FEW030 OVC043 10/08 A3029 RMK AO2 SLP258 FEW V SCT
 P0006 T01000078=
KALB 191628Z 17005KT 3SM -RA BR BKN028 OVC042 10/08 A3027 RMK AO2 P0003
 T01000078=
KALB 191628Z 17005KT 3SM -RA BR BKN028 OVC042 10/08 A3027=
KALB 191642Z 18004KT 2SM RA BR FEW011 OVC026 11/08 A3026 RMK AO2 TWR VIS 2 1/2
 P0007 T01060078=
KALB 191642Z 18004KT 2SM RA BR FEW011 OVC026 11/08 A3026=
KALB 191651Z 21006KT 2 1/2SM -RA BR FEW010 OVC026 11/08 A3026 RMK AO2 SLP248
 P0009 T01060078=
KALB 191731Z 00000KT 2 1/2SM -RA BR FEW007 SCT012 OVC023 11/09 A3023 RMK AO2
 SFC VIS 3 P0010 T01060089=
KALB 191731Z 00000KT 2 1/2SM -RA BR FEW007 SCT012 OVC023 11/09 A3023=
KALB 191751Z 00000KT 2 1/2SM -RA BR BKN009 OVC023 11/09 A3022 RMK AO2 SFC VIS 3
 SLP233 P0012 60034 T01110089 10139 20094 58033=
KALB 191851Z 18003KT 2 1/2SM -RA BR BKN008 OVC022 12/10 A3019 RMK AO2 SLP223
 P0010 T01170100=
KALB 191951Z 20004KT 2SM -RA BR BKN007 OVC015 12/10 A3017 RMK AO2 SFC VIS 2 1/2
 SLP215 P0009 T01220100=
KALB 192051Z 15006KT 2SM -RA BR BKN007 OVC013 12/11 A3014 RMK AO2 SFC VIS 2 1/2
 SLP207 P0006 60025 T01220106 56025=
KALB 192123Z 16006KT 3SM -RA BR BKN007 OVC013 12/11 A3013 RMK AO2 SFC VIS 5
 P0000 T01220106=
KALB 192123Z 16006KT 3SM -RA BR BKN007 OVC013 12/11 A3013=
KALB 192151Z 17007KT 3SM -RA BR BKN007 OVC013 12/11 A3012 RMK AO2 SFC VIS 6
 SLP199 P0000 T01220106=
KALB 192251Z 17007KT 3SM -RA BR BKN007 OVC011 13/11 A3010 RMK AO2 SFC VIS 5
 SLP193 PCPN VRY LGT P0000 T01280106=
KALB 192351Z 18008KT 6SM BR BKN006 OVC011 13/11 A3006 RMK AO2 RAE30 SLP181
 P0000 60025 T01280111 10128 20111 58026=
KALB 200051Z 18006KT 9SM BKN005 OVC011 13/11 A3005 RMK AO2 SLP175 T01280111=
KALB 200151Z 17009KT 7SM BKN005 OVC011 13/11 A3004 RMK AO2 SLP171 T01280111=
KALB 200251Z 16007KT 7SM OVC005 13/11 A3002 RMK AO2 SLP165 T01280111 58016=
KALB 200351Z 17010KT 10SM OVC005 13/11 A2999 RMK AO2 SLP157 T01330111=
KALB 200451Z 17010KT 10SM OVC005 13/12 A2997 RMK AO2 SLP150 T01330117 401440094=
KALB 200551Z 17009KT 10SM OVC005 14/12 A2993 RMK AO2 SLP137 T01390122 10139
 20128 58027=
KALB 200651Z 18012KT 10SM OVC005 14/13 A2991 RMK AO2 SLP129 T01440128=
KALB 200751Z 18010KT 10SM BKN006 OVC034 14/13 A2990 RMK AO2 SLP124 T01440128=
KALB 200851Z 18012KT 10SM BKN006 BKN037 15/13 A2988 RMK AO2 SLP120 T01500133
 56017=
KALB 200951Z 17010KT 10SM -DZ OVC006 16/14 A2988 RMK AO2 DZB50 SLP118 P0000
 T01560139=
KALB 201051Z 18007KT 10SM OVC006 16/14 A2988 RMK AO2 DZE23 SLP117 P0000
 T01610144=
KALB 201151Z 19006KT 10SM OVC006 17/14 A2989 RMK AO2 SLP121 VCSH NW 60000 70059
 T01670144 10167 20139 53001=
KALB 201251Z 18007KT 10SM BKN007 OVC032 17/15 A2989 RMK AO2 SLP120 T01720150=
KALB 201316Z 18009KT 10SM SCT007 OVC032 18/15 A2988 RMK AO2 T01780150=
KALB 201316Z 18009KT 10SM SCT007 OVC032 18/15 A2988=